^^
Datos históricos de la estación: Murcia-Puente Tocinos
Diario Informe para Abril 24, 2019 Unidades:  Ambas    Ingés   Métrico
Diario Semanal Mensual Anual
  Máxima: Mínima: Promedio:
Temperatura: 92.7 °F /  33.7 °C 65.8 °F /  18.8 °C 77 °F /  25 °C
Punto de rocio: 64.6 °F /  18.1 °C 46.8 °F /  8.2 °C 59.9 °F /  15.5 °C
Humedad: 81% 21% 59%
Velocidad viento: 9.2mph /  14.8km/h - 3.8mph /  6.1km/h
Racha viento: 21mph /  33.8km/h - -
Viento- - SSO
Presión: 30.1 in /  1018.3 hPa 29.9 in /  1012.4 hPa -
Precipitación: 0 in /  0.0 mm    
 
 
Tabla de datos para Abril 24, 2019
Hora Temperatura Punto de rocio Presión Viento Velocidad viento Racha viento Humedad Intensidad lluvia(por hora) Nubes
00:04 72 °F /  22.2 °C 64.6 °F /  18.1 °C 30.1in /  1018.3hPa NO 1.4mph /  2.2km/h 3mph /  4.8km/h 78% 0in /  0.0mm
00:09 71.8 °F /  22.1 °C 64.6 °F /  18.1 °C 30.1in /  1018.3hPa NO 1.1mph /  1.8km/h 2.4mph /  3.9km/h 78% 0in /  0.0mm
00:14 71.8 °F /  22.1 °C 64.6 °F /  18.1 °C 30.1in /  1018.3hPa Calm   3mph /  4.8km/h 78% 0in /  0.0mm
00:19 71.6 °F /  22 °C 64.4 °F /  18 °C 30.1in /  1018.3hPa NO 0.2mph /  0.4km/h 2.3mph /  3.7km/h 78% 0in /  0.0mm
00:24 71.6 °F /  22 °C 64.4 °F /  18 °C 30.1in /  1018.2hPa NO 1.4mph /  2.2km/h 1mph /  1.6km/h 78% 0in /  0.0mm
00:29 71.4 °F /  21.9 °C 64.6 °F /  18.1 °C 30.1in /  1018.2hPa NO 1.1mph /  1.8km/h   78.9% 0in /  0.0mm
00:34 71.4 °F /  21.9 °C 64.6 °F /  18.1 °C 30.1in /  1018.2hPa Calm     79% 0in /  0.0mm
00:39 71.2 °F /  21.8 °C 64.4 °F /  18 °C 30.1in /  1018.1hPa Calm     79% 0in /  0.0mm
00:44 71.2 °F /  21.8 °C 64.4 °F /  18 °C 30.1in /  1018.1hPa Calm   1.4mph /  2.3km/h 79% 0in /  0.0mm
00:49 71.2 °F /  21.8 °C 64.4 °F /  18 °C 30.1in /  1018.1hPa Calm   2.3mph /  3.7km/h 79% 0in /  0.0mm
00:54 71.2 °F /  21.8 °C 64.4 °F /  18 °C 30.1in /  1018.1hPa Calm   2.4mph /  3.9km/h 79% 0in /  0.0mm
00:59 71.2 °F /  21.8 °C 64.2 °F /  17.9 °C 30.1in /  1018.1hPa SE 0.4mph /  0.7km/h 5.9mph /  9.5km/h 78.5% 0in /  0.0mm
01:04 70.9 °F /  21.6 °C 63.3 °F /  17.4 °C 30.1in /  1018.1hPa SSE 1.8mph /  2.9km/h 6mph /  9.7km/h 77.2% 0in /  0.0mm
01:09 70.5 °F /  21.4 °C 62.6 °F /  17 °C 30.1in /  1018.0hPa Sur 2.1mph /  3.3km/h 5.2mph /  8.4km/h 76% 0in /  0.0mm
01:14 70.5 °F /  21.4 °C 62.2 °F /  16.8 °C 30.1in /  1018.0hPa SSE 3.1mph /  5km/h 5mph /  8km/h 75.2% 0in /  0.0mm
01:19 70.5 °F /  21.4 °C 61.9 °F /  16.6 °C 30.1in /  1018.0hPa Sur 3.1mph /  5km/h 5mph /  8km/h 74.1% 0in /  0.0mm
01:24 70.5 °F /  21.4 °C 61.9 °F /  16.6 °C 30.1in /  1017.9hPa Sur 3.1mph /  5km/h 5mph /  8km/h 74% 0in /  0.0mm
01:29 70.7 °F /  21.5 °C 62.1 °F /  16.7 °C 30.1in /  1017.9hPa SSE 2.9mph /  4.6km/h 5mph /  8km/h 74% 0in /  0.0mm
01:34 70.9 °F /  21.6 °C 62.2 °F /  16.8 °C 30.1in /  1017.9hPa SSE 2mph /  3.2km/h 3mph /  4.8km/h 74% 0in /  0.0mm
01:39 70.9 °F /  21.6 °C 62.4 °F /  16.9 °C 30.1in /  1017.9hPa SSE 1.6mph /  2.5km/h   74.8% 0in /  0.0mm
01:44 70.7 °F /  21.5 °C 62.4 °F /  16.9 °C 30.1in /  1017.9hPa Calm   2.9mph /  4.7km/h 75% 0in /  0.0mm
01:49 70.5 °F /  21.4 °C 62.2 °F /  16.8 °C 30.1in /  1017.9hPa SSE 0.3mph /  0.5km/h 3mph /  4.8km/h 75% 0in /  0.0mm
01:54 70.5 °F /  21.4 °C 62.2 °F /  16.8 °C 30.1in /  1017.8hPa SSE 1.4mph /  2.2km/h 3.5mph /  5.6km/h 75% 0in /  0.0mm
01:59 70.3 °F /  21.3 °C 62.1 °F /  16.7 °C 30.1in /  1017.8hPa SSE 1.4mph /  2.2km/h 3mph /  4.8km/h 75% 0in /  0.0mm
02:04 70.3 °F /  21.3 °C 62.1 °F /  16.7 °C 30.1in /  1017.9hPa SSE 1.4mph /  2.2km/h 2.4mph /  3.9km/h 75% 0in /  0.0mm
02:09 70.3 °F /  21.3 °C 62.1 °F /  16.7 °C 30.1in /  1017.9hPa SSE 1.4mph /  2.2km/h 3.6mph /  5.8km/h 75% 0in /  0.0mm
02:14 70.2 °F /  21.2 °C 61.9 °F /  16.6 °C 30.1in /  1017.9hPa SSE 1.4mph /  2.2km/h 4mph /  6.4km/h 75% 0in /  0.0mm
02:19 70.2 °F /  21.2 °C 61.9 °F /  16.6 °C 30.1in /  1017.9hPa SSE 1.5mph /  2.4km/h 3.5mph /  5.6km/h 75% 0in /  0.0mm
02:24 70.2 °F /  21.2 °C 61.5 °F /  16.4 °C 30.1in /  1017.9hPa SE 1.8mph /  2.9km/h 4.6mph /  7.4km/h 74.2% 0in /  0.0mm
02:29 70.2 °F /  21.2 °C 61.5 °F /  16.4 °C 30.1in /  1017.9hPa SE 1.9mph /  3km/h 5mph /  8km/h 74% 0in /  0.0mm
02:34 70.2 °F /  21.2 °C 61.9 °F /  16.6 °C 30.1in /  1017.9hPa SSE 2mph /  3.2km/h 5mph /  8km/h 75% 0in /  0.0mm
02:39 70 °F /  21.1 °C 61.7 °F /  16.5 °C 30.1in /  1017.8hPa SSE 2.2mph /  3.6km/h 5mph /  8km/h 75% 0in /  0.0mm
02:44 70 °F /  21.1 °C 61.7 °F /  16.5 °C 30.1in /  1017.8hPa Sur 3.1mph /  5km/h 5.2mph /  8.4km/h 75% 0in /  0.0mm
02:49 70 °F /  21.1 °C 61.7 °F /  16.5 °C 30.1in /  1017.8hPa Sur 3.1mph /  5km/h 5.2mph /  8.4km/h 75% 0in /  0.0mm
02:54 70 °F /  21.1 °C 61.7 °F /  16.5 °C 30.1in /  1017.7hPa SSO 3.1mph /  5km/h 5.2mph /  8.4km/h 75% 0in /  0.0mm
02:59 69.8 °F /  21 °C 61.5 °F /  16.4 °C 30.1in /  1017.7hPa SSO 3.3mph /  5.3km/h 6.9mph /  11.1km/h 75% 0in /  0.0mm
03:04 69.8 °F /  21 °C 61.5 °F /  16.4 °C 30.1in /  1017.7hPa SSO 4mph /  6.4km/h 7mph /  11.3km/h 75% 0in /  0.0mm
03:09 69.8 °F /  21 °C 61.5 °F /  16.4 °C 30.1in /  1017.6hPa SSO 4mph /  6.5km/h 6.9mph /  11.1km/h 75% 0in /  0.0mm
03:14 69.8 °F /  21 °C 61.5 °F /  16.4 °C 30.1in /  1017.6hPa SSO 4.3mph /  6.9km/h 7mph /  11.3km/h 75% 0in /  0.0mm
03:19 69.6 °F /  20.9 °C 61.3 °F /  16.3 °C 30.1in /  1017.6hPa SSO 4.4mph /  7.1km/h 7mph /  11.3km/h 75.1% 0in /  0.0mm
03:24 69.6 °F /  20.9 °C 61.7 °F /  16.5 °C 30in /  1017.4hPa SSO 4.7mph /  7.6km/h 7mph /  11.3km/h 76% 0in /  0.0mm
03:29 69.6 °F /  20.9 °C 61.7 °F /  16.5 °C 30in /  1017.4hPa SSO 4.7mph /  7.6km/h 8.1mph /  13km/h 76% 0in /  0.0mm
03:34 69.6 °F /  20.9 °C 61.7 °F /  16.5 °C 30in /  1017.4hPa SO 4.7mph /  7.6km/h 8.1mph /  13km/h 76% 0in /  0.0mm
03:39 69.6 °F /  20.9 °C 61.7 °F /  16.5 °C 30in /  1017.2hPa SO 4.5mph /  7.3km/h 8mph /  12.9km/h 76% 0in /  0.0mm
03:44 69.4 °F /  20.8 °C 61.5 °F /  16.4 °C 30in /  1017.2hPa SO 4mph /  6.5km/h 6.9mph /  11.1km/h 76% 0in /  0.0mm
03:49 69.4 °F /  20.8 °C 61.5 °F /  16.4 °C 30in /  1017.2hPa SO 4.1mph /  6.6km/h 8.1mph /  13km/h 76% 0in /  0.0mm
03:54 69.4 °F /  20.8 °C 61.3 °F /  16.3 °C 30in /  1016.9hPa SO 4.3mph /  6.9km/h 8mph /  12.9km/h 75.5% 0in /  0.0mm
03:59 69.4 °F /  20.8 °C 61.2 °F /  16.2 °C 30in /  1016.9hPa SSO 4.1mph /  6.6km/h 6.2mph /  10km/h 75% 0in /  0.0mm
04:04 69.4 °F /  20.8 °C 61.2 °F /  16.2 °C 30in /  1016.9hPa SO 3.6mph /  5.8km/h 6.2mph /  10km/h 75% 0in /  0.0mm
04:09 69.4 °F /  20.8 °C 61.3 °F /  16.3 °C 30in /  1016.8hPa SO 3.6mph /  5.8km/h 6mph /  9.7km/h 75.6% 0in /  0.0mm
04:14 69.4 °F /  20.8 °C 61.5 °F /  16.4 °C 30in /  1016.8hPa SO 3.6mph /  5.8km/h 5.2mph /  8.4km/h 76% 0in /  0.0mm
04:19 69.3 °F /  20.7 °C 61.3 °F /  16.3 °C 30in /  1016.8hPa SO 3.5mph /  5.6km/h 5mph /  8km/h 76% 0in /  0.0mm
04:24 69.3 °F /  20.7 °C 61.3 °F /  16.3 °C 30in /  1016.7hPa OSO 3.1mph /  5km/h 5mph /  8km/h 76% 0in /  0.0mm
04:29 69.1 °F /  20.6 °C 61.2 °F /  16.2 °C 30in /  1016.7hPa SO 3.1mph /  5km/h 5.9mph /  9.5km/h 76% 0in /  0.0mm
04:34 68.9 °F /  20.5 °C 61.2 °F /  16.2 °C 30in /  1016.8hPa SO 3.1mph /  5km/h 6.2mph /  10km/h 76% 0in /  0.0mm
04:39 68.7 °F /  20.4 °C 61 °F /  16.1 °C 30in /  1016.8hPa OSO 3.2mph /  5.1km/h 6mph /  9.7km/h 76% 0in /  0.0mm
04:44 68.7 °F /  20.4 °C 60.8 °F /  16 °C 30in /  1016.8hPa OSO 3.6mph /  5.8km/h 6.2mph /  10km/h 76% 0in /  0.0mm
04:49 68.7 °F /  20.4 °C 60.8 °F /  16 °C 30in /  1016.8hPa OSO 3.7mph /  6km/h 6.9mph /  11.1km/h 76% 0in /  0.0mm
04:54 68.5 °F /  20.3 °C 60.6 °F /  15.9 °C 30in /  1016.8hPa OSO 4.3mph /  6.9km/h 7mph /  11.3km/h 76% 0in /  0.0mm
04:59 68.5 °F /  20.3 °C 60.6 °F /  15.9 °C 30in /  1016.8hPa SO 3.9mph /  6.2km/h 5mph /  8km/h 76% 0in /  0.0mm
05:04 68.5 °F /  20.3 °C 60.6 °F /  15.9 °C 30in /  1016.8hPa OSO 2.4mph /  3.9km/h 5.2mph /  8.4km/h 76% 0in /  0.0mm
05:09 68.5 °F /  20.3 °C 60.6 °F /  15.9 °C 30in /  1016.7hPa OSO 2.5mph /  4.1km/h 5mph /  8km/h 76% 0in /  0.0mm
05:14 68.5 °F /  20.3 °C 60.6 °F /  15.9 °C 30in /  1016.7hPa OSO 3.1mph /  5km/h 5mph /  8km/h 76% 0in /  0.0mm
05:19 68.5 °F /  20.3 °C 60.6 °F /  15.9 °C 30in /  1016.7hPa OSO 3mph /  4.8km/h 5mph /  8km/h 76% 0in /  0.0mm
05:24 68.5 °F /  20.3 °C 61 °F /  16.1 °C 30in /  1016.6hPa OSO 2.4mph /  3.9km/h 5mph /  8km/h 76.9% 0in /  0.0mm
05:29 68.4 °F /  20.2 °C 61 °F /  16.1 °C 30in /  1016.6hPa SO 2.5mph /  4km/h 5.2mph /  8.4km/h 77% 0in /  0.0mm
05:34 68.4 °F /  20.2 °C 61 °F /  16.1 °C 30in /  1016.6hPa SO 2.9mph /  4.7km/h 5.9mph /  9.5km/h 77% 0in /  0.0mm
05:39 68.4 °F /  20.2 °C 61 °F /  16.1 °C 30in /  1016.6hPa SSO 3mph /  4.9km/h 6.2mph /  10km/h 77% 0in /  0.0mm
05:44 68.4 °F /  20.2 °C 60.8 °F /  16 °C 30in /  1016.6hPa SO 3.6mph /  5.8km/h 6.2mph /  10km/h 76.9% 0in /  0.0mm
05:49 68.4 °F /  20.2 °C 60.4 °F /  15.8 °C 30in /  1016.7hPa SO 3.6mph /  5.8km/h 6mph /  9.7km/h 76% 0in /  0.0mm
05:54 68.2 °F /  20.1 °C 60.6 °F /  15.9 °C 30in /  1016.7hPa SO 3.6mph /  5.8km/h 6.2mph /  10km/h 76.7% 0in /  0.0mm
05:59 68.2 °F /  20.1 °C 60.6 °F /  15.9 °C 30in /  1016.7hPa SO 3.5mph /  5.6km/h 6mph /  9.7km/h 77% 0in /  0.0mm
06:04 68 °F /  20 °C 60.6 °F /  15.9 °C 30in /  1016.7hPa OSO 3.1mph /  5km/h 5.2mph /  8.4km/h 77% 0in /  0.0mm
06:09 68 °F /  20 °C 60.4 °F /  15.8 °C 30in /  1016.6hPa OSO 3mph /  4.8km/h 5mph /  8km/h 77% 0in /  0.0mm
06:14 67.8 °F /  19.9 °C 60.3 °F /  15.7 °C 30in /  1016.6hPa Sur 2.4mph /  3.9km/h 5mph /  8km/h 77% 0in /  0.0mm
06:19 67.8 °F /  19.9 °C 60.4 °F /  15.8 °C 30in /  1016.6hPa Sur 2.2mph /  3.5km/h 3mph /  4.8km/h 77.5% 0in /  0.0mm
06:24 67.6 °F /  19.8 °C 60.4 °F /  15.8 °C 30in /  1016.6hPa SSO 1.4mph /  2.2km/h 3.6mph /  5.8km/h 78% 0in /  0.0mm
06:29 67.6 °F /  19.8 °C 60.6 °F /  15.9 °C 30in /  1016.6hPa OSO 1.5mph /  2.4km/h 4mph /  6.4km/h 78.5% 0in /  0.0mm
06:34 67.5 °F /  19.7 °C 60.6 °F /  15.9 °C 30in /  1016.6hPa OSO 1.8mph /  2.9km/h 4mph /  6.4km/h 79% 0in /  0.0mm
06:39 67.3 °F /  19.6 °C 60.4 °F /  15.8 °C 30in /  1016.5hPa OSO 1.9mph /  3.1km/h 5mph /  8km/h 79% 0in /  0.0mm
06:44 67.3 °F /  19.6 °C 60.4 °F /  15.8 °C 30in /  1016.5hPa SO 2.4mph /  3.9km/h 5mph /  8km/h 79% 0in /  0.0mm
06:49 67.1 °F /  19.5 °C 60.4 °F /  15.8 °C 30in /  1016.7hPa SO 2.5mph /  4.1km/h 5mph /  8km/h 79% 0in /  0.0mm
06:54 67.3 °F /  19.6 °C 60.4 °F /  15.8 °C 30in /  1016.7hPa SO 3.1mph /  5km/h 5.9mph /  9.5km/h 79% 0in /  0.0mm
06:59 67.3 °F /  19.6 °C 60.4 °F /  15.8 °C 30in /  1016.7hPa SO 3.1mph /  5km/h 6.2mph /  10km/h 78.7% 0in /  0.0mm
07:04 67.3 °F /  19.6 °C 60.3 °F /  15.7 °C 30in /  1016.7hPa OSO 3.1mph /  5km/h 6mph /  9.7km/h 78% 0in /  0.0mm
07:09 67.5 °F /  19.7 °C 60.4 °F /  15.8 °C 30in /  1016.7hPa OSO 3mph /  4.9km/h 5.9mph /  9.5km/h 78% 0in /  0.0mm
07:14 67.5 °F /  19.7 °C 60.4 °F /  15.8 °C 30in /  1016.7hPa OSO 2.9mph /  4.7km/h 6mph /  9.7km/h 78% 0in /  0.0mm
07:19 67.5 °F /  19.7 °C 60.4 °F /  15.8 °C 30in /  1016.9hPa ONO 2.8mph /  4.5km/h 5mph /  8km/h 78% 0in /  0.0mm
07:24 67.3 °F /  19.6 °C 60.4 °F /  15.8 °C 30in /  1016.9hPa ONO 2.4mph /  3.9km/h 4mph /  6.4km/h 78.6% 0in /  0.0mm
07:29 67.1 °F /  19.5 °C 60.4 °F /  15.8 °C 30in /  1016.9hPa ONO 2.2mph /  3.5km/h 3mph /  4.8km/h 79% 0in /  0.0mm
07:34 66.9 °F /  19.4 °C 60.3 °F /  15.7 °C 30in /  1017.0hPa ONO 1.4mph /  2.2km/h 4.6mph /  7.4km/h 79.4% 0in /  0.0mm
07:39 66.7 °F /  19.3 °C 60.4 °F /  15.8 °C 30in /  1017.0hPa ONO 1.5mph /  2.4km/h 5mph /  8km/h 80% 0in /  0.0mm
07:44 66.7 °F /  19.3 °C 60.3 °F /  15.7 °C 30in /  1017.0hPa OSO 1.8mph /  2.9km/h 4.7mph /  7.6km/h 79.8% 0in /  0.0mm
07:49 66.7 °F /  19.3 °C 60.1 °F /  15.6 °C 30in /  1017.0hPa SSE 1.9mph /  3.1km/h 5mph /  8km/h 79.1% 0in /  0.0mm
07:54 66.7 °F /  19.3 °C 60.4 °F /  15.8 °C 30in /  1016.9hPa ESE 2.4mph /  3.9km/h 5mph /  8km/h 80% 0in /  0.0mm
07:59 66.6 °F /  19.2 °C 60.1 °F /  15.6 °C 30in /  1016.9hPa SE 2.5mph /  4km/h 5.2mph /  8.4km/h 80% 0in /  0.0mm
08:04 66.2 °F /  19 °C 60.1 °F /  15.6 °C 30in /  1016.9hPa SSE 2.9mph /  4.7km/h 6.9mph /  11.1km/h 80.5% 0in /  0.0mm
08:09 66 °F /  18.9 °C 59.9 °F /  15.5 °C 30in /  1016.9hPa SSE 3.2mph /  5.1km/h 7mph /  11.3km/h 81% 0in /  0.0mm
08:14 65.8 °F /  18.8 °C 59.7 °F /  15.4 °C 30in /  1016.9hPa SSE 4.3mph /  6.9km/h 7mph /  11.3km/h 81% 0in /  0.0mm
08:19 65.8 °F /  18.8 °C 59.7 °F /  15.4 °C 30in /  1016.9hPa SSE 4.3mph /  6.9km/h 7mph /  11.3km/h 81% 0in /  0.0mm
08:24 65.8 °F /  18.8 °C 59.7 °F /  15.4 °C 30in /  1016.8hPa SSE 4.3mph /  6.9km/h 6.2mph /  10km/h 81% 0in /  0.0mm
08:29 65.8 °F /  18.8 °C 59.7 °F /  15.4 °C 30in /  1016.8hPa SSE 4.2mph /  6.8km/h 6.2mph /  10km/h 81% 0in /  0.0mm
08:34 65.8 °F /  18.8 °C 59.7 °F /  15.4 °C 30in /  1016.8hPa Sur 4mph /  6.5km/h 6mph /  9.7km/h 81% 0in /  0.0mm
08:39 65.8 °F /  18.8 °C 59.7 °F /  15.4 °C 30in /  1016.8hPa Sur 3.8mph /  6.1km/h 5mph /  8km/h 81% 0in /  0.0mm
08:44 66 °F /  18.9 °C 60.1 °F /  15.6 °C 30in /  1016.8hPa SO 3.1mph /  5km/h 5mph /  8km/h 81% 0in /  0.0mm
08:49 66.4 °F /  19.1 °C 60.4 °F /  15.8 °C 30in /  1016.9hPa SSO 3mph /  4.9km/h 5mph /  8km/h 80.8% 0in /  0.0mm
08:54 66.7 °F /  19.3 °C 60.3 °F /  15.7 °C 30in /  1016.9hPa SO 2.9mph /  4.7km/h 5.9mph /  9.5km/h 79.5% 0in /  0.0mm
08:59 67.3 °F /  19.6 °C 60.4 °F /  15.8 °C 30in /  1016.9hPa OSO 2.9mph /  4.7km/h 6mph /  9.7km/h 78.5% 0in /  0.0mm
09:04 67.6 °F /  19.8 °C 60.4 °F /  15.8 °C 30in /  1016.9hPa OSO 3.1mph /  5km/h 6.2mph /  10km/h 77.9% 0in /  0.0mm
09:09 68 °F /  20 °C 60.4 °F /  15.8 °C 30in /  1016.9hPa Oeste 3.3mph /  5.3km/h 8.1mph /  13km/h 77% 0in /  0.0mm
09:14 68.2 °F /  20.1 °C 60.6 °F /  15.9 °C 30in /  1016.9hPa OSO 4mph /  6.4km/h 8.1mph /  13km/h 76.8% 0in /  0.0mm
09:19 68.4 °F /  20.2 °C 60.4 °F /  15.8 °C 30in /  1017.1hPa OSO 4.2mph /  6.7km/h 8.1mph /  13km/h 76% 0in /  0.0mm
09:24 68.4 °F /  20.2 °C 60.6 °F /  15.9 °C 30in /  1017.1hPa OSO 4.7mph /  7.6km/h 9.7mph /  15.6km/h 76% 0in /  0.0mm
09:29 68.5 °F /  20.3 °C 60.8 °F /  16 °C 30in /  1017.1hPa OSO 4.7mph /  7.6km/h 10mph /  16.1km/h 76% 0in /  0.0mm
09:34 69.1 °F /  20.6 °C 60.8 °F /  16 °C 30in /  1017.3hPa OSO 4.7mph /  7.6km/h 8.5mph /  13.7km/h 75% 0in /  0.0mm
09:39 69.3 °F /  20.7 °C 61 °F /  16.1 °C 30in /  1017.3hPa OSO 4.7mph /  7.6km/h 9mph /  14.5km/h 75% 0in /  0.0mm
09:44 69.6 °F /  20.9 °C 60.8 °F /  16 °C 30in /  1017.3hPa OSO 4.7mph /  7.6km/h 8.5mph /  13.7km/h 73.5% 0in /  0.0mm
09:49 70 °F /  21.1 °C 60.8 °F /  16 °C 30in /  1017.4hPa OSO 4.8mph /  7.7km/h 9mph /  14.5km/h 73.1% 0in /  0.0mm
09:54 70.2 °F /  21.2 °C 60.8 °F /  16 °C 30in /  1017.4hPa SO 5.2mph /  8.4km/h 7mph /  11.3km/h 72.3% 0in /  0.0mm
09:59 70.5 °F /  21.4 °C 60.6 °F /  15.9 °C 30in /  1017.4hPa SO 4.9mph /  7.9km/h 7.4mph /  11.9km/h 71.1% 0in /  0.0mm
10:04 70.9 °F /  21.6 °C 60.3 °F /  15.7 °C 30.1in /  1017.5hPa OSO 4mph /  6.5km/h 8.1mph /  13km/h 69.3% 0in /  0.0mm
10:09 71.2 °F /  21.8 °C 60.4 °F /  15.8 °C 30.1in /  1017.5hPa SO 4.1mph /  6.6km/h 8.1mph /  13km/h 68.8% 0in /  0.0mm
10:14 71.4 °F /  21.9 °C 60.3 °F /  15.7 °C 30.1in /  1017.5hPa SO 4.3mph /  6.9km/h 7.4mph /  11.9km/h 67.9% 0in /  0.0mm
10:19 71.4 °F /  21.9 °C 60.3 °F /  15.7 °C 30.1in /  1017.5hPa SSO 4.5mph /  7.2km/h 8.1mph /  13km/h 68% 0in /  0.0mm
10:24 71.8 °F /  22.1 °C 60.6 °F /  15.9 °C 30in /  1017.4hPa SO 5.2mph /  8.4km/h 8mph /  12.9km/h 68% 0in /  0.0mm
10:29 72 °F /  22.2 °C 61.3 °F /  16.3 °C 30in /  1017.4hPa Sur 5mph /  8km/h 7.4mph /  11.9km/h 69% 0in /  0.0mm
10:34 72.1 °F /  22.3 °C 61 °F /  16.1 °C 30.1in /  1017.5hPa SSO 4mph /  6.5km/h 8.5mph /  13.7km/h 68.1% 0in /  0.0mm
10:39 72.1 °F /  22.3 °C 61 °F /  16.1 °C 30.1in /  1017.5hPa SSO 4.3mph /  6.9km/h 9.2mph /  14.8km/h 68% 0in /  0.0mm
10:44 72.1 °F /  22.3 °C 60.8 °F /  16 °C 30.1in /  1017.5hPa SSO 5.4mph /  8.7km/h 9.2mph /  14.8km/h 67.3% 0in /  0.0mm
10:49 72.5 °F /  22.5 °C 60.8 °F /  16 °C 30.1in /  1017.7hPa SO 5.4mph /  8.7km/h 10mph /  16.1km/h 66.7% 0in /  0.0mm
10:54 72.9 °F /  22.7 °C 60.6 °F /  15.9 °C 30.1in /  1017.7hPa OSO 5.4mph /  8.7km/h 10mph /  16.1km/h 65.6% 0in /  0.0mm
10:59 73.4 °F /  23 °C 60.4 °F /  15.8 °C 30.1in /  1017.7hPa SO 5.3mph /  8.6km/h 8.1mph /  13km/h 63.8% 0in /  0.0mm
11:04 73.8 °F /  23.2 °C 60.3 °F /  15.7 °C 30.1in /  1017.7hPa SO 5.2mph /  8.4km/h 8.1mph /  13km/h 62.9% 0in /  0.0mm
11:09 74.1 °F /  23.4 °C 59.7 °F /  15.4 °C 30.1in /  1017.6hPa Oeste 5.2mph /  8.4km/h 8.5mph /  13.7km/h 60.8% 0in /  0.0mm
11:14 74.7 °F /  23.7 °C 59.5 °F /  15.3 °C 30.1in /  1017.6hPa Oeste 5.2mph /  8.4km/h 9mph /  14.5km/h 59.4% 0in /  0.0mm
11:19 74.8 °F /  23.8 °C 59.5 °F /  15.3 °C 30.1in /  1017.6hPa OSO 5mph /  8.1km/h 8mph /  12.9km/h 58.8% 0in /  0.0mm
11:24 75.4 °F /  24.1 °C 59.4 °F /  15.2 °C 30.1in /  1017.6hPa OSO 4.3mph /  6.9km/h 7.6mph /  12.2km/h 57.8% 0in /  0.0mm
11:29 75.7 °F /  24.3 °C 59.4 °F /  15.2 °C 30.1in /  1017.6hPa OSO 4.4mph /  7.1km/h 8.1mph /  13km/h 56.8% 0in /  0.0mm
11:34 76.3 °F /  24.6 °C 59.4 °F /  15.2 °C 30.1in /  1017.6hPa OSO 4.7mph /  7.6km/h 8.1mph /  13km/h 56% 0in /  0.0mm
11:39 76.5 °F /  24.7 °C 59.4 °F /  15.2 °C 30.1in /  1017.5hPa OSO 4.7mph /  7.6km/h 8.1mph /  13km/h 55.3% 0in /  0.0mm
11:44 76.6 °F /  24.8 °C 59.5 °F /  15.3 °C 30.1in /  1017.5hPa OSO 4.7mph /  7.6km/h 8.1mph /  13km/h 55.7% 0in /  0.0mm
11:49 76.6 °F /  24.8 °C 59.7 °F /  15.4 °C 30.1in /  1017.5hPa Sur 4.7mph /  7.6km/h 8mph /  12.9km/h 55.8% 0in /  0.0mm
11:54 77 °F /  25 °C 60.1 °F /  15.6 °C 30in /  1017.4hPa SSO 4.7mph /  7.6km/h 8.7mph /  14km/h 55.9% 0in /  0.0mm
11:59 77.4 °F /  25.2 °C 59.9 °F /  15.5 °C 30in /  1017.4hPa SO 4.7mph /  7.6km/h 9.2mph /  14.8km/h 54.9% 0in /  0.0mm
12:04 77.5 °F /  25.3 °C 60.1 °F /  15.6 °C 30in /  1017.4hPa SO 4.7mph /  7.6km/h 8.5mph /  13.7km/h 54.9% 0in /  0.0mm
12:09 77.9 °F /  25.5 °C 60.4 °F /  15.8 °C 30in /  1017.2hPa SSO 4.6mph /  7.4km/h 9mph /  14.5km/h 55% 0in /  0.0mm
12:14 78.3 °F /  25.7 °C 60.4 °F /  15.8 °C 30in /  1017.2hPa SO 4.3mph /  6.9km/h 8mph /  12.9km/h 54.6% 0in /  0.0mm
12:19 78.4 °F /  25.8 °C 60.4 °F /  15.8 °C 30in /  1017.2hPa OSO 4.3mph /  6.9km/h 8.1mph /  13km/h 53.9% 0in /  0.0mm
12:24 78.8 °F /  26 °C 60.6 °F /  15.9 °C 30in /  1017.2hPa SO 4.3mph /  6.9km/h 8mph /  12.9km/h 53.8% 0in /  0.0mm
12:29 79.3 °F /  26.3 °C 60.3 °F /  15.7 °C 30in /  1017.2hPa SO 4.3mph /  6.9km/h 9.2mph /  14.8km/h 52% 0in /  0.0mm
12:34 79.3 °F /  26.3 °C 59.2 °F /  15.1 °C 30in /  1017.2hPa SO 4.3mph /  6.9km/h 9.2mph /  14.8km/h 50.1% 0in /  0.0mm
12:39 79.5 °F /  26.4 °C 59.2 °F /  15.1 °C 30in /  1017.0hPa Oeste 4.5mph /  7.2km/h 9.2mph /  14.8km/h 50% 0in /  0.0mm
12:44 80.1 °F /  26.7 °C 59 °F /  15 °C 30in /  1017.0hPa Oeste 5.2mph /  8.4km/h 9.2mph /  14.8km/h 48.9% 0in /  0.0mm
12:49 80.2 °F /  26.8 °C 59.2 °F /  15.1 °C 30in /  1017.0hPa Oeste 5mph /  8km/h 9mph /  14.5km/h 48.9% 0in /  0.0mm
12:54 80.6 °F /  27 °C 59.5 °F /  15.3 °C 30in /  1016.8hPa SO 4.3mph /  6.9km/h 8mph /  12.9km/h 48.6% 0in /  0.0mm
12:59 81.1 °F /  27.3 °C 59.2 °F /  15.1 °C 30in /  1016.8hPa SSO 4.2mph /  6.8km/h 8.1mph /  13km/h 47.5% 0in /  0.0mm
13:04 81.5 °F /  27.5 °C 59 °F /  15 °C 30in /  1016.8hPa SO 4mph /  6.5km/h 8.1mph /  13km/h 46.6% 0in /  0.0mm
13:09 81.7 °F /  27.6 °C 58.6 °F /  14.8 °C 30in /  1016.6hPa SO 4.1mph /  6.6km/h 9.2mph /  14.8km/h 45.5% 0in /  0.0mm
13:14 82 °F /  27.8 °C 58.3 °F /  14.6 °C 30in /  1016.6hPa SO 4.3mph /  6.9km/h 9mph /  14.5km/h 44.8% 0in /  0.0mm
13:19 82.2 °F /  27.9 °C 57.9 °F /  14.4 °C 30in /  1016.6hPa SSO 4.2mph /  6.7km/h 7mph /  11.3km/h 43.8% 0in /  0.0mm
13:24 82.8 °F /  28.2 °C 58.1 °F /  14.5 °C 30in /  1016.5hPa SSO 3.6mph /  5.8km/h 8.5mph /  13.7km/h 43.2% 0in /  0.0mm
13:29 82.9 °F /  28.3 °C 57 °F /  13.9 °C 30in /  1016.5hPa OSO 3.9mph /  6.2km/h 9mph /  14.5km/h 41% 0in /  0.0mm
13:34 83.5 °F /  28.6 °C 56.7 °F /  13.7 °C 30in /  1016.5hPa SSO 4.7mph /  7.6km/h 9.2mph /  14.8km/h 40% 0in /  0.0mm
13:39 83.7 °F /  28.7 °C 57.2 °F /  14 °C 30in /  1016.3hPa Sur 4.7mph /  7.6km/h 9mph /  14.5km/h 40.5% 0in /  0.0mm
13:44 83.8 °F /  28.8 °C 57 °F /  13.9 °C 30in /  1016.3hPa Sur 4.7mph /  7.6km/h 8.1mph /  13km/h 40% 0in /  0.0mm
13:49 84.4 °F /  29.1 °C 57 °F /  13.9 °C 30in /  1016.3hPa Sur 4.8mph /  7.7km/h 8.5mph /  13.7km/h 39.4% 0in /  0.0mm
13:54 84.7 °F /  29.3 °C 56.3 °F /  13.5 °C 30in /  1016.0hPa Sur 5.2mph /  8.4km/h 9.2mph /  14.8km/h 38.1% 0in /  0.0mm
13:59 84.9 °F /  29.4 °C 55.6 °F /  13.1 °C 30in /  1016.0hPa SO 5.1mph /  8.2km/h 9mph /  14.5km/h 36.8% 0in /  0.0mm
14:04 85.1 °F /  29.5 °C 55.8 °F /  13.2 °C 30in /  1016.0hPa SO 4.7mph /  7.6km/h 7.4mph /  11.9km/h 36.7% 0in /  0.0mm
14:09 85.5 °F /  29.7 °C 54.3 °F /  12.4 °C 30in /  1015.6hPa SSO 4.6mph /  7.4km/h 10.4mph /  16.7km/h 34.4% 0in /  0.0mm
14:14 85.6 °F /  29.8 °C 54.3 °F /  12.4 °C 30in /  1015.6hPa SSO 4.3mph /  6.9km/h 10.4mph /  16.7km/h 34.4% 0in /  0.0mm
14:19 85.8 °F /  29.9 °C 53.4 °F /  11.9 °C 30in /  1015.6hPa SO 4.4mph /  7.1km/h 9mph /  14.5km/h 32.9% 0in /  0.0mm
14:24 86.2 °F /  30.1 °C 54 °F /  12.2 °C 30in /  1015.3hPa SSE 4.7mph /  7.6km/h 9mph /  14.5km/h 33.2% 0in /  0.0mm
14:29 86.5 °F /  30.3 °C 54.5 °F /  12.5 °C 30in /  1015.3hPa Sur 4.5mph /  7.2km/h 8mph /  12.9km/h 33.8% 0in /  0.0mm
14:34 86.9 °F /  30.5 °C 54.3 °F /  12.4 °C 30in /  1015.3hPa SSO 3.6mph /  5.8km/h 8.5mph /  13.7km/h 32.9% 0in /  0.0mm
14:39 87.1 °F /  30.6 °C 54.5 °F /  12.5 °C 30in /  1015.0hPa SSE 3.9mph /  6.3km/h 9mph /  14.5km/h 33% 0in /  0.0mm
14:44 87.1 °F /  30.6 °C 54.3 °F /  12.4 °C 30in /  1015.0hPa SSE 5.2mph /  8.4km/h 9mph /  14.5km/h 32.7% 0in /  0.0mm
14:49 87.3 °F /  30.7 °C 53.8 °F /  12.1 °C 30in /  1015.0hPa SSE 5mph /  8km/h 7mph /  11.3km/h 32.1% 0in /  0.0mm
14:54 87.4 °F /  30.8 °C 54 °F /  12.2 °C 30in /  1014.7hPa SE 4mph /  6.5km/h 7mph /  11.3km/h 32% 0in /  0.0mm
14:59 88 °F /  31.1 °C 53.4 °F /  11.9 °C 30in /  1014.7hPa SSE 3.9mph /  6.3km/h 11.5mph /  18.5km/h 30.8% 0in /  0.0mm
15:04 88.2 °F /  31.2 °C 52.5 °F /  11.4 °C 30in /  1014.7hPa SSO 3.6mph /  5.8km/h 12mph /  19.3km/h 29.6% 0in /  0.0mm
15:09 88.2 °F /  31.2 °C 51.1 °F /  10.6 °C 30in /  1014.4hPa Oeste 3.6mph /  5.8km/h 6mph /  9.7km/h 28% 0in /  0.0mm
15:14 88.3 °F /  31.3 °C 51.4 °F /  10.8 °C 30in /  1014.4hPa Sur 3.6mph /  5.8km/h 7.4mph /  11.9km/h 28.2% 0in /  0.0mm
15:19 88.5 °F /  31.4 °C 51.4 °F /  10.8 °C 30in /  1014.4hPa Sur 3.7mph /  5.9km/h 8.1mph /  13km/h 28.1% 0in /  0.0mm
15:24 88.9 °F /  31.6 °C 50.7 °F /  10.4 °C 29.9in /  1014.0hPa SSE 4mph /  6.4km/h 8mph /  12.9km/h 27.2% 0in /  0.0mm
15:29 89.1 °F /  31.7 °C 50.7 °F /  10.4 °C 29.9in /  1014.0hPa SSO 4.1mph /  6.6km/h 9.2mph /  14.8km/h 27% 0in /  0.0mm
15:34 89.1 °F /  31.7 °C 50.5 °F /  10.3 °C 29.9in /  1014.0hPa SSE 4.3mph /  6.9km/h 9mph /  14.5km/h 26.8% 0in /  0.0mm
15:39 89.2 °F /  31.8 °C 50.2 °F /  10.1 °C 29.9in /  1013.9hPa SE 4.2mph /  6.8km/h 8mph /  12.9km/h 26.2% 0in /  0.0mm
15:44 89.4 °F /  31.9 °C 49.3 °F /  9.6 °C 29.9in /  1013.9hPa SO 4mph /  6.5km/h 8.1mph /  13km/h 25.3% 0in /  0.0mm
15:49 89.8 °F /  32.1 °C 49.3 °F /  9.6 °C 29.9in /  1013.9hPa SO 3.8mph /  6.1km/h 8mph /  12.9km/h 25.1% 0in /  0.0mm
15:54 90.3 °F /  32.4 °C 49.6 °F /  9.8 °C 29.9in /  1013.8hPa Sur 2.9mph /  4.7km/h 6.2mph /  10km/h 24.9% 0in /  0.0mm
15:59 90.9 °F /  32.7 °C 49.3 °F /  9.6 °C 29.9in /  1013.8hPa ONO 2.7mph /  4.4km/h 6mph /  9.7km/h 24.2% 0in /  0.0mm
16:04 91.2 °F /  32.9 °C 49.5 °F /  9.7 °C 29.9in /  1013.8hPa Oeste 2.4mph /  3.9km/h 5mph /  8km/h 24.1% 0in /  0.0mm
16:09 91.6 °F /  33.1 °C 48.6 °F /  9.2 °C 29.9in /  1013.6hPa NO 2.4mph /  3.9km/h 5.9mph /  9.5km/h 23% 0in /  0.0mm
16:14 91.6 °F /  33.1 °C 48.9 °F /  9.4 °C 29.9in /  1013.6hPa Oeste 2.4mph /  3.9km/h 6mph /  9.7km/h 23.3% 0in /  0.0mm
16:19 91.9 °F /  33.3 °C 48.2 °F /  9 °C 29.9in /  1013.6hPa SSO 2.4mph /  3.9km/h 8.1mph /  13km/h 22.4% 0in /  0.0mm
16:24 91.9 °F /  33.3 °C 47.1 °F /  8.4 °C 29.9in /  1013.5hPa SO 2.4mph /  3.9km/h 8.1mph /  13km/h 21.6% 0in /  0.0mm
16:29 91.8 °F /  33.2 °C 47.5 °F /  8.6 °C 29.9in /  1013.5hPa SSE 2.7mph /  4.4km/h 7mph /  11.3km/h 22% 0in /  0.0mm
16:34 91.6 °F /  33.1 °C 47.7 °F /  8.7 °C 29.9in /  1013.5hPa SE 4mph /  6.4km/h 7mph /  11.3km/h 22.2% 0in /  0.0mm
16:39 91.6 °F /  33.1 °C 47.5 °F /  8.6 °C 29.9in /  1013.3hPa Oeste 3.8mph /  6.1km/h 5.8mph /  9.3km/h 22.1% 0in /  0.0mm
16:44 91.9 °F /  33.3 °C 47.5 °F /  8.6 °C 29.9in /  1013.3hPa SO 2.9mph /  4.7km/h 6mph /  9.7km/h 21.8% 0in /  0.0mm
16:49 92.5 °F /  33.6 °C 46.8 °F /  8.2 °C 29.9in /  1013.3hPa ONO 2.8mph /  4.5km/h 6mph /  9.7km/h 21% 0in /  0.0mm
16:54 92.7 °F /  33.7 °C 46.9 °F /  8.3 °C 29.9in /  1013.2hPa SE 2.4mph /  3.9km/h 5mph /  8km/h 21% 0in /  0.0mm
16:59 92.7 °F /  33.7 °C 47.1 °F /  8.4 °C 29.9in /  1013.2hPa SSO 2.5mph /  4.1km/h 7.4mph /  11.9km/h 21% 0in /  0.0mm
17:04 92.5 °F /  33.6 °C 54.7 °F /  12.6 °C 29.9in /  1013.2hPa SSE 2.9mph /  4.6km/h 12.7mph /  20.4km/h 28.5% 0in /  0.0mm
17:09 91.4 °F /  33 °C 58.6 °F /  14.8 °C 29.9in /  1012.9hPa SE 3.5mph /  5.6km/h 13mph /  20.9km/h 33.6% 0in /  0.0mm
17:14 90.5 °F /  32.5 °C 61.2 °F /  16.2 °C 29.9in /  1012.9hPa ESE 5.9mph /  9.5km/h 13mph /  20.9km/h 37.8% 0in /  0.0mm
17:19 90 °F /  32.2 °C 61 °F /  16.1 °C 29.9in /  1012.9hPa ESE 6.2mph /  10km/h 13.8mph /  22.2km/h 38.2% 0in /  0.0mm
17:24 89.4 °F /  31.9 °C 61.3 °F /  16.3 °C 29.9in /  1012.7hPa ESE 7.4mph /  11.9km/h 14mph /  22.5km/h 39.3% 0in /  0.0mm
17:29 89.2 °F /  31.8 °C 60.4 °F /  15.8 °C 29.9in /  1012.7hPa SE 7.5mph /  12km/h 13mph /  20.9km/h 38.3% 0in /  0.0mm
17:34 89.4 °F /  31.9 °C 61.2 °F /  16.2 °C 29.9in /  1012.7hPa SE 7.6mph /  12.2km/h 10mph /  16.1km/h 38.9% 0in /  0.0mm
17:39 89.2 °F /  31.8 °C 62.2 °F /  16.8 °C 29.9in /  1012.6hPa ESE 7.3mph /  11.8km/h 12.7mph /  20.4km/h 40.7% 0in /  0.0mm
17:44 88.9 °F /  31.6 °C 62.8 °F /  17.1 °C 29.9in /  1012.6hPa ESE 6.4mph /  10.3km/h 13.8mph /  22.2km/h 41.9% 0in /  0.0mm
17:49 88.3 °F /  31.3 °C 62.6 °F /  17 °C 29.9in /  1012.6hPa ESE 6.9mph /  11.1km/h 15mph /  24.1km/h 42.2% 0in /  0.0mm
17:54 88.3 °F /  31.3 °C 62.6 °F /  17 °C 29.9in /  1012.6hPa ESE 8.5mph /  13.7km/h 15mph /  24.1km/h 42.4% 0in /  0.0mm
17:59 88.2 °F /  31.2 °C 62.4 °F /  16.9 °C 29.9in /  1012.6hPa ESE 8.6mph /  13.9km/h 16.8mph /  27km/h 42.3% 0in /  0.0mm
18:04 88.2 °F /  31.2 °C 62.6 °F /  17 °C 29.9in /  1012.6hPa SE 9.2mph /  14.8km/h 17mph /  27.4km/h 42.8% 0in /  0.0mm
18:09 88.2 °F /  31.2 °C 62.8 °F /  17.1 °C 29.9in /  1012.4hPa SE 8.8mph /  14.2km/h 13.8mph /  22.2km/h 43% 0in /  0.0mm
18:14 88.2 °F /  31.2 °C 62.8 °F /  17.1 °C 29.9in /  1012.4hPa SE 7.4mph /  11.9km/h 14mph /  22.5km/h 43.1% 0in /  0.0mm
18:19 88.2 °F /  31.2 °C 62.8 °F /  17.1 °C 29.9in /  1012.4hPa SE 7.5mph /  12km/h 20.8mph /  33.5km/h 43% 0in /  0.0mm
18:24 88 °F /  31.1 °C 62.6 °F /  17 °C 29.9in /  1012.4hPa SSE 7.6mph /  12.2km/h 21mph /  33.8km/h 42.8% 0in /  0.0mm
18:29 87.6 °F /  30.9 °C 62.2 °F /  16.8 °C 29.9in /  1012.4hPa SSE 8mph /  12.8km/h 16mph /  25.7km/h 42.8% 0in /  0.0mm
18:34 87.4 °F /  30.8 °C 62.2 °F /  16.8 °C 29.9in /  1012.4hPa SSE 9.2mph /  14.8km/h 13mph /  20.9km/h 43% 0in /  0.0mm
18:39 87.4 °F /  30.8 °C 62.1 °F /  16.7 °C 29.9in /  1012.4hPa SSE 8.8mph /  14.2km/h 13.8mph /  22.2km/h 42.8% 0in /  0.0mm
18:44 87.4 °F /  30.8 °C 61.9 °F /  16.6 °C 29.9in /  1012.4hPa Sur 7.4mph /  11.9km/h 14mph /  22.5km/h 42.4% 0in /  0.0mm
18:49 87.4 °F /  30.8 °C 61.5 °F /  16.4 °C 29.9in /  1012.5hPa Sur 7.1mph /  11.5km/h 12mph /  19.3km/h 42% 0in /  0.0mm
18:54 87.4 °F /  30.8 °C 61.5 °F /  16.4 °C 29.9in /  1012.5hPa SSE 6.4mph /  10.3km/h 11.4mph /  18.3km/h 42% 0in /  0.0mm
18:59 87.1 °F /  30.6 °C 61.3 °F /  16.3 °C 29.9in /  1012.5hPa Sur 6.3mph /  10.2km/h 12mph /  19.3km/h 42.1% 0in /  0.0mm
19:04 87.1 °F /  30.6 °C 61.2 °F /  16.2 °C 29.9in /  1012.6hPa Sur 6.2mph /  10km/h 11.8mph /  19km/h 42% 0in /  0.0mm
19:09 86.7 °F /  30.4 °C 60.8 °F /  16 °C 29.9in /  1012.6hPa Sur 6.3mph /  10.2km/h 12.7mph /  20.4km/h 41.9% 0in /  0.0mm
19:14 86.5 °F /  30.3 °C 60.6 °F /  15.9 °C 29.9in /  1012.6hPa Sur 6.9mph /  11.1km/h 13mph /  20.9km/h 42% 0in /  0.0mm
19:19 86.4 °F /  30.2 °C 61 °F /  16.1 °C 29.9in /  1012.6hPa SO 6.8mph /  10.9km/h 12mph /  19.3km/h 42.7% 0in /  0.0mm
19:24 86 °F /  30 °C 60.8 °F /  16 °C 29.9in /  1012.6hPa SO 6.2mph /  10km/h 12mph /  19.3km/h 43% 0in /  0.0mm
19:29 85.5 °F /  29.7 °C 61 °F /  16.1 °C 29.9in /  1012.6hPa SO 6.3mph /  10.2km/h 12mph /  19.3km/h 43.9% 0in /  0.0mm
19:34 84.9 °F /  29.4 °C 60.6 °F /  15.9 °C 29.9in /  1012.6hPa SO 6.9mph /  11.1km/h 12mph /  19.3km/h 44% 0in /  0.0mm
19:39 84.7 °F /  29.3 °C 60.8 °F /  16 °C 29.9in /  1012.6hPa SO 6.5mph /  10.5km/h 9mph /  14.5km/h 44.6% 0in /  0.0mm
19:44 84.6 °F /  29.2 °C 60.8 °F /  16 °C 29.9in /  1012.6hPa SO 5.2mph /  8.4km/h 9mph /  14.5km/h 45% 0in /  0.0mm
19:49 84.4 °F /  29.1 °C 60.8 °F /  16 °C 29.9in /  1012.6hPa OSO 5mph /  8.1km/h 8.1mph /  13km/h 45.2% 0in /  0.0mm
19:54 84 °F /  28.9 °C 61 °F /  16.1 °C 29.9in /  1012.6hPa SO 4.3mph /  6.9km/h 9.7mph /  15.6km/h 46% 0in /  0.0mm
19:59 83.7 °F /  28.7 °C 61.2 °F /  16.2 °C 29.9in /  1012.6hPa SO 4.3mph /  6.9km/h 10mph /  16.1km/h 46.7% 0in /  0.0mm
20:04 83.5 °F /  28.6 °C 61.3 °F /  16.3 °C 29.9in /  1012.7hPa SO 4.3mph /  6.9km/h 6mph /  9.7km/h 47.3% 0in /  0.0mm
20:09 83.1 °F /  28.4 °C 61.3 °F /  16.3 °C 29.9in /  1012.7hPa OSO 4mph /  6.5km/h 6mph /  9.7km/h 48% 0in /  0.0mm
20:14 82.8 °F /  28.2 °C 61.3 °F /  16.3 °C 29.9in /  1012.7hPa SO 2.9mph /  4.7km/h 5mph /  8km/h 48.2% 0in /  0.0mm
20:19 82.6 °F /  28.1 °C 61.5 °F /  16.4 °C 29.9in /  1012.8hPa SO 2.8mph /  4.5km/h 5.2mph /  8.4km/h 49% 0in /  0.0mm
20:24 82.2 °F /  27.9 °C 61.2 °F /  16.2 °C 29.9in /  1012.8hPa SO 2.4mph /  3.9km/h 5.8mph /  9.3km/h 49% 0in /  0.0mm
20:29 82 °F /  27.8 °C 61.3 °F /  16.3 °C 29.9in /  1012.8hPa SO 2.4mph /  3.9km/h 6mph /  9.7km/h 49.8% 0in /  0.0mm
20:34 81.9 °F /  27.7 °C 61.3 °F /  16.3 °C 29.9in /  1013.0hPa SO 2.4mph /  3.9km/h 5mph /  8km/h 50% 0in /  0.0mm
20:39 81.7 °F /  27.6 °C 61.2 °F /  16.2 °C 29.9in /  1013.0hPa SO 2.2mph /  3.6km/h 5mph /  8km/h 50% 0in /  0.0mm
20:44 81.7 °F /  27.6 °C 61.2 °F /  16.2 °C 29.9in /  1013.0hPa Sur 1.8mph /  2.9km/h 4.6mph /  7.4km/h 50% 0in /  0.0mm
20:49 81.5 °F /  27.5 °C 61.3 °F /  16.3 °C 29.9in /  1013.1hPa SSO 2.1mph /  3.3km/h 5mph /  8km/h 50.5% 0in /  0.0mm
20:54 81.3 °F /  27.4 °C 61.5 °F /  16.4 °C 29.9in /  1013.1hPa OSO 2.9mph /  4.7km/h 5mph /  8km/h 51% 0in /  0.0mm
20:59 81.1 °F /  27.3 °C 61.5 °F /  16.4 °C 29.9in /  1013.1hPa SO 2.7mph /  4.3km/h 4.6mph /  7.4km/h 51.3% 0in /  0.0mm
21:04 81 °F /  27.2 °C 61.7 °F /  16.5 °C 29.9in /  1013.1hPa SO 2mph /  3.2km/h 5mph /  8km/h 52% 0in /  0.0mm
21:09 81 °F /  27.2 °C 61.5 °F /  16.4 °C 29.9in /  1013.1hPa OSO 2.2mph /  3.5km/h 5.9mph /  9.5km/h 52% 0in /  0.0mm
21:14 80.6 °F /  27 °C 61.7 °F /  16.5 °C 29.9in /  1013.1hPa OSO 2.9mph /  4.7km/h 6mph /  9.7km/h 52.7% 0in /  0.0mm
21:19 80.4 °F /  26.9 °C 61.7 °F /  16.5 °C 29.9in /  1013.2hPa OSO 2.8mph /  4.5km/h 5.8mph /  9.3km/h 53% 0in /  0.0mm
21:24 80.2 °F /  26.8 °C 61.9 °F /  16.6 °C 29.9in /  1013.2hPa Oeste 2.4mph /  3.9km/h 6mph /  9.7km/h 53.5% 0in /  0.0mm
21:29 80.1 °F /  26.7 °C 61.9 °F /  16.6 °C 29.9in /  1013.2hPa Oeste 2.3mph /  3.7km/h 5mph /  8km/h 54% 0in /  0.0mm
21:34 79.9 °F /  26.6 °C 61.7 °F /  16.5 °C 29.9in /  1013.3hPa SO 2mph /  3.2km/h 5.4mph /  8.7km/h 54% 0in /  0.0mm
21:39 79.7 °F /  26.5 °C 61.5 °F /  16.4 °C 29.9in /  1013.3hPa OSO 2.1mph /  3.4km/h 6mph /  9.7km/h 54.1% 0in /  0.0mm
21:44 79.5 °F /  26.4 °C 61.9 °F /  16.6 °C 29.9in /  1013.3hPa SO 2.4mph /  3.9km/h 6.2mph /  10km/h 54.9% 0in /  0.0mm
21:49 79.5 °F /  26.4 °C 61.9 °F /  16.6 °C 29.9in /  1013.3hPa OSO 2.5mph /  4.1km/h 6mph /  9.7km/h 55% 0in /  0.0mm
21:54 79.3 °F /  26.3 °C 61.9 °F /  16.6 °C 29.9in /  1013.3hPa SO 3.1mph /  5km/h 6mph /  9.7km/h 55.2% 0in /  0.0mm
21:59 79.3 °F /  26.3 °C 62.2 °F /  16.8 °C 29.9in /  1013.3hPa SO 2.8mph /  4.5km/h 4mph /  6.4km/h 56% 0in /  0.0mm
22:04 79.2 °F /  26.2 °C 62.1 °F /  16.7 °C 29.9in /  1013.5hPa SO 2mph /  3.2km/h 5.2mph /  8.4km/h 56% 0in /  0.0mm
22:09 79 °F /  26.1 °C 62.2 °F /  16.8 °C 29.9in /  1013.5hPa OSO 2.2mph /  3.5km/h 5mph /  8km/h 56.5% 0in /  0.0mm
22:14 78.8 °F /  26 °C 62.2 °F /  16.8 °C 29.9in /  1013.5hPa OSO 2.9mph /  4.7km/h 5.9mph /  9.5km/h 57% 0in /  0.0mm
22:19 78.4 °F /  25.8 °C 62.4 °F /  16.9 °C 29.9in /  1013.5hPa SO 3.1mph /  5km/h 6.2mph /  10km/h 57.8% 0in /  0.0mm
22:24 78.3 °F /  25.7 °C 62.6 °F /  17 °C 29.9in /  1013.5hPa SO 4mph /  6.4km/h 8.1mph /  13km/h 58.5% 0in /  0.0mm
22:29 78.1 °F /  25.6 °C 62.6 °F /  17 °C 29.9in /  1013.5hPa SO 4.1mph /  6.6km/h 8mph /  12.9km/h 59% 0in /  0.0mm
22:34 77.9 °F /  25.5 °C 62.8 °F /  17.1 °C 29.9in /  1013.5hPa SO 4.3mph /  6.9km/h 7.4mph /  11.9km/h 59.4% 0in /  0.0mm
22:39 77.9 °F /  25.5 °C 62.8 °F /  17.1 °C 29.9in /  1013.5hPa SO 4.2mph /  6.8km/h 7mph /  11.3km/h 60% 0in /  0.0mm
22:44 77.7 °F /  25.4 °C 62.8 °F /  17.1 °C 29.9in /  1013.5hPa SO 4mph /  6.5km/h 6mph /  9.7km/h 60% 0in /  0.0mm
22:49 77.7 °F /  25.4 °C 62.8 °F /  17.1 °C 29.9in /  1013.5hPa SO 3.9mph /  6.3km/h 6mph /  9.7km/h 60% 0in /  0.0mm
22:54 77.7 °F /  25.4 °C 62.8 °F /  17.1 °C 29.9in /  1013.5hPa SO 3.6mph /  5.8km/h 6.2mph /  10km/h 60% 0in /  0.0mm
22:59 77.7 °F /  25.4 °C 62.8 °F /  17.1 °C 29.9in /  1013.5hPa SO 3.7mph /  5.9km/h 6.9mph /  11.1km/h 60.1% 0in /  0.0mm
23:04 77.7 °F /  25.4 °C 63.1 °F /  17.3 °C 29.9in /  1013.6hPa SO 4mph /  6.4km/h 8.5mph /  13.7km/h 61% 0in /  0.0mm
23:09 77.5 °F /  25.3 °C 63.1 °F /  17.3 °C 29.9in /  1013.6hPa SSO 4.1mph /  6.6km/h 9.7mph /  15.6km/h 61.3% 0in /  0.0mm
23:14 77.4 °F /  25.2 °C 63.3 °F /  17.4 °C 29.9in /  1013.6hPa SSO 4.3mph /  6.9km/h 11.5mph /  18.5km/h 62% 0in /  0.0mm
23:19 77.4 °F /  25.2 °C 63.7 °F /  17.6 °C 29.9in /  1013.7hPa SSO 4.7mph /  7.6km/h 12mph /  19.3km/h 62.6% 0in /  0.0mm
23:24 77.2 °F /  25.1 °C 63.5 °F /  17.5 °C 29.9in /  1013.7hPa SSO 6.2mph /  10km/h 11mph /  17.7km/h 63% 0in /  0.0mm
23:29 76.8 °F /  24.9 °C 63.7 °F /  17.6 °C 29.9in /  1013.7hPa SSO 6.2mph /  9.9km/h 9.7mph /  15.6km/h 63.7% 0in /  0.0mm
23:34 76.6 °F /  24.8 °C 63.7 °F /  17.6 °C 29.9in /  1013.7hPa SSO 5.9mph /  9.5km/h 10mph /  16.1km/h 64% 0in /  0.0mm
23:39 76.6 °F /  24.8 °C 63.5 °F /  17.5 °C 29.9in /  1013.7hPa SSO 5.8mph /  9.3km/h 8.1mph /  13km/h 64% 0in /  0.0mm
23:44 76.6 °F /  24.8 °C 63.7 °F /  17.6 °C 29.9in /  1013.7hPa SSO 5.2mph /  8.4km/h 7.4mph /  11.9km/h 64.4% 0in /  0.0mm
23:49 76.5 °F /  24.7 °C 63.9 °F /  17.7 °C 29.9in /  1013.7hPa SO 5mph /  8.1km/h 7mph /  11.3km/h 65% 0in /  0.0mm
23:54 76.5 °F /  24.7 °C 63.7 °F /  17.6 °C 29.9in /  1013.7hPa SO 4.3mph /  6.9km/h 7mph /  11.3km/h 65% 0in /  0.0mm
23:59 76.3 °F /  24.6 °C 63.9 °F /  17.7 °C 29.9in /  1013.7hPa SSO 4.2mph /  6.8km/h 6.2mph /  10km/h 65.6% 0in /  0.0mm
Murcia-Puente Tocinos, España
Compliments of Weather Underground - 3 mb

La estación de MeteoMurcia.com, publica sus datos en los siguientes proyectos:

Weather Underground PWS IMURCIAP2 Meteoclimatic www.awekas.at

W3Counter
Web Analytics